sensor_id;sensor_type;location;lat;lon;timestamp;temperature;humidity
67586;SHT31;55785;47.946;20.540;2024-01-27T00:01:03;4.49;91.38
67586;SHT31;55785;47.946;20.540;2024-01-27T00:03:29;4.50;91.40
67586;SHT31;55785;47.946;20.540;2024-01-27T00:05:54;4.56;91.35
67586;SHT31;55785;47.946;20.540;2024-01-27T00:08:19;4.57;91.17
67586;SHT31;55785;47.946;20.540;2024-01-27T00:10:45;4.63;91.09
67586;SHT31;55785;47.946;20.540;2024-01-27T00:13:10;4.66;91.26
67586;SHT31;55785;47.946;20.540;2024-01-27T00:15:35;4.67;91.21
67586;SHT31;55785;47.946;20.540;2024-01-27T00:18:01;4.72;91.19
67586;SHT31;55785;47.946;20.540;2024-01-27T00:20:26;4.80;91.17
67586;SHT31;55785;47.946;20.540;2024-01-27T00:22:51;4.83;90.99
67586;SHT31;55785;47.946;20.540;2024-01-27T00:25:17;4.87;90.85
67586;SHT31;55785;47.946;20.540;2024-01-27T00:27:42;4.86;90.72
67586;SHT31;55785;47.946;20.540;2024-01-27T00:30:08;4.93;90.62
67586;SHT31;55785;47.946;20.540;2024-01-27T00:32:33;4.93;90.53
67586;SHT31;55785;47.946;20.540;2024-01-27T00:34:58;4.98;90.45
67586;SHT31;55785;47.946;20.540;2024-01-27T00:37:24;5.01;90.32
67586;SHT31;55785;47.946;20.540;2024-01-27T00:39:49;5.00;90.22
67586;SHT31;55785;47.946;20.540;2024-01-27T00:42:14;5.00;90.28
67586;SHT31;55785;47.946;20.540;2024-01-27T00:44:40;4.93;90.32
67586;SHT31;55785;47.946;20.540;2024-01-27T00:47:05;4.83;90.42
67586;SHT31;55785;47.946;20.540;2024-01-27T00:49:30;4.83;90.54
67586;SHT31;55785;47.946;20.540;2024-01-27T00:51:56;4.84;90.52
67586;SHT31;55785;47.946;20.540;2024-01-27T00:54:21;4.86;90.50
67586;SHT31;55785;47.946;20.540;2024-01-27T00:56:46;4.84;90.46
67586;SHT31;55785;47.946;20.540;2024-01-27T00:59:12;4.86;89.82
67586;SHT31;55785;47.946;20.540;2024-01-27T01:01:37;4.70;89.70
67586;SHT31;55785;47.946;20.540;2024-01-27T01:04:02;4.53;89.97
67586;SHT31;55785;47.946;20.540;2024-01-27T01:06:28;4.45;89.93
67586;SHT31;55785;47.946;20.540;2024-01-27T01:08:53;4.32;90.00
67586;SHT31;55785;47.946;20.540;2024-01-27T01:11:18;4.21;89.89
67586;SHT31;55785;47.946;20.540;2024-01-27T01:13:44;4.14;89.38
67586;SHT31;55785;47.946;20.540;2024-01-27T01:16:09;4.07;89.58
67586;SHT31;55785;47.946;20.540;2024-01-27T01:18:34;4.15;89.49
67586;SHT31;55785;47.946;20.540;2024-01-27T01:21:00;4.12;89.67
67586;SHT31;55785;47.946;20.540;2024-01-27T01:23:25;4.08;89.83
67586;SHT31;55785;47.946;20.540;2024-01-27T01:25:50;3.90;89.46
67586;SHT31;55785;47.946;20.540;2024-01-27T01:28:16;3.93;89.54
67586;SHT31;55785;47.946;20.540;2024-01-27T01:30:41;4.02;89.61
67586;SHT31;55785;47.946;20.540;2024-01-27T01:33:07;3.91;89.81
67586;SHT31;55785;47.946;20.540;2024-01-27T01:35:32;3.80;90.11
67586;SHT31;55785;47.946;20.540;2024-01-27T01:37:57;3.83;90.08
67586;SHT31;55785;47.946;20.540;2024-01-27T01:40:23;3.67;90.23
67586;SHT31;55785;47.946;20.540;2024-01-27T01:42:51;3.60;90.21
67586;SHT31;55785;47.946;20.540;2024-01-27T01:45:17;3.63;90.15
67586;SHT31;55785;47.946;20.540;2024-01-27T01:47:42;3.63;90.28
67586;SHT31;55785;47.946;20.540;2024-01-27T01:50:08;3.60;90.37
67586;SHT31;55785;47.946;20.540;2024-01-27T01:52:33;3.52;90.40
67586;SHT31;55785;47.946;20.540;2024-01-27T01:54:59;3.62;90.96
67586;SHT31;55785;47.946;20.540;2024-01-27T01:57:24;4.01;91.32
67586;SHT31;55785;47.946;20.540;2024-01-27T01:59:50;4.21;90.83
67586;SHT31;55785;47.946;20.540;2024-01-27T02:02:15;4.05;89.22
67586;SHT31;55785;47.946;20.540;2024-01-27T02:04:44;3.74;89.75
67586;SHT31;55785;47.946;20.540;2024-01-27T02:07:09;3.55;90.09
67586;SHT31;55785;47.946;20.540;2024-01-27T02:09:35;3.42;90.64
67586;SHT31;55785;47.946;20.540;2024-01-27T02:12:01;3.29;90.95
67586;SHT31;55785;47.946;20.540;2024-01-27T02:14:27;3.26;91.13
67586;SHT31;55785;47.946;20.540;2024-01-27T02:16:52;3.28;91.42
67586;SHT31;55785;47.946;20.540;2024-01-27T02:19:18;3.40;92.05
67586;SHT31;55785;47.946;20.540;2024-01-27T02:21:43;3.63;91.85
67586;SHT31;55785;47.946;20.540;2024-01-27T02:24:08;3.70;91.40
67586;SHT31;55785;47.946;20.540;2024-01-27T02:26:34;3.66;90.91
67586;SHT31;55785;47.946;20.540;2024-01-27T02:28:59;3.62;90.76
67586;SHT31;55785;47.946;20.540;2024-01-27T02:31:24;3.43;90.47
67586;SHT31;55785;47.946;20.540;2024-01-27T02:33:50;3.32;90.33
67586;SHT31;55785;47.946;20.540;2024-01-27T02:36:15;3.32;90.64
67586;SHT31;55785;47.946;20.540;2024-01-27T02:38:40;3.42;90.54
67586;SHT31;55785;47.946;20.540;2024-01-27T02:41:06;3.22;90.38
67586;SHT31;55785;47.946;20.540;2024-01-27T02:43:31;3.16;90.18
67586;SHT31;55785;47.946;20.540;2024-01-27T02:45:56;2.97;90.81
67586;SHT31;55785;47.946;20.540;2024-01-27T02:48:22;3.12;92.23
67586;SHT31;55785;47.946;20.540;2024-01-27T02:50:47;3.47;91.79
67586;SHT31;55785;47.946;20.540;2024-01-27T02:53:12;3.64;91.16
67586;SHT31;55785;47.946;20.540;2024-01-27T02:55:38;3.70;91.07
67586;SHT31;55785;47.946;20.540;2024-01-27T02:58:03;3.84;90.68
67586;SHT31;55785;47.946;20.540;2024-01-27T03:00:29;3.71;90.37
67586;SHT31;55785;47.946;20.540;2024-01-27T03:02:54;3.52;89.86
67586;SHT31;55785;47.946;20.540;2024-01-27T03:05:20;3.50;89.77
67586;SHT31;55785;47.946;20.540;2024-01-27T03:07:45;3.42;89.72
67586;SHT31;55785;47.946;20.540;2024-01-27T03:10:10;3.09;89.46
67586;SHT31;55785;47.946;20.540;2024-01-27T03:12:36;2.99;90.17
67586;SHT31;55785;47.946;20.540;2024-01-27T03:15:01;2.94;90.63
67586;SHT31;55785;47.946;20.540;2024-01-27T03:17:26;2.76;90.52
67586;SHT31;55785;47.946;20.540;2024-01-27T03:19:52;2.62;90.68
67586;SHT31;55785;47.946;20.540;2024-01-27T03:22:17;2.57;90.99
67586;SHT31;55785;47.946;20.540;2024-01-27T03:24:42;3.19;89.82
67586;SHT31;55785;47.946;20.540;2024-01-27T03:27:08;3.97;85.71
67586;SHT31;55785;47.946;20.540;2024-01-27T03:29:33;4.44;82.67
67586;SHT31;55785;47.946;20.540;2024-01-27T03:31:58;4.66;81.20
67586;SHT31;55785;47.946;20.540;2024-01-27T03:34:24;4.91;79.35
67586;SHT31;55785;47.946;20.540;2024-01-27T03:36:49;5.07;79.00
67586;SHT31;55785;47.946;20.540;2024-01-27T03:39:14;5.05;78.84
67586;SHT31;55785;47.946;20.540;2024-01-27T03:41:40;5.08;78.28
67586;SHT31;55785;47.946;20.540;2024-01-27T03:44:05;5.04;78.44
67586;SHT31;55785;47.946;20.540;2024-01-27T03:46:30;5.10;76.36
67586;SHT31;55785;47.946;20.540;2024-01-27T03:48:56;5.10;75.62
67586;SHT31;55785;47.946;20.540;2024-01-27T03:51:21;5.07;74.67
67586;SHT31;55785;47.946;20.540;2024-01-27T03:53:46;5.10;73.38
67586;SHT31;55785;47.946;20.540;2024-01-27T03:56:12;5.17;70.89
67586;SHT31;55785;47.946;20.540;2024-01-27T03:58:37;5.36;69.16
67586;SHT31;55785;47.946;20.540;2024-01-27T04:01:03;5.39;68.80
67586;SHT31;55785;47.946;20.540;2024-01-27T04:03:28;5.41;67.86
67586;SHT31;55785;47.946;20.540;2024-01-27T04:05:53;5.42;67.01
67586;SHT31;55785;47.946;20.540;2024-01-27T04:08:19;5.32;67.72
67586;SHT31;55785;47.946;20.540;2024-01-27T04:10:44;5.23;67.64
67586;SHT31;55785;47.946;20.540;2024-01-27T04:13:09;5.20;67.66
67586;SHT31;55785;47.946;20.540;2024-01-27T04:15:35;5.13;67.80
67586;SHT31;55785;47.946;20.540;2024-01-27T04:18:00;5.14;66.50
67586;SHT31;55785;47.946;20.540;2024-01-27T04:20:25;5.17;66.05
67586;SHT31;55785;47.946;20.540;2024-01-27T04:22:51;5.10;66.66
67586;SHT31;55785;47.946;20.540;2024-01-27T04:25:16;5.15;65.16
67586;SHT31;55785;47.946;20.540;2024-01-27T04:27:41;5.13;65.97
67586;SHT31;55785;47.946;20.540;2024-01-27T04:30:07;5.10;66.76
67586;SHT31;55785;47.946;20.540;2024-01-27T04:32:33;4.98;67.42
67586;SHT31;55785;47.946;20.540;2024-01-27T04:34:58;4.84;68.07
67586;SHT31;55785;47.946;20.540;2024-01-27T04:37:23;4.73;68.29
67586;SHT31;55785;47.946;20.540;2024-01-27T04:39:49;4.63;69.05
67586;SHT31;55785;47.946;20.540;2024-01-27T04:42:14;4.56;69.78
67586;SHT31;55785;47.946;20.540;2024-01-27T04:44:40;4.55;69.89
67586;SHT31;55785;47.946;20.540;2024-01-27T04:47:05;4.53;69.70
67586;SHT31;55785;47.946;20.540;2024-01-27T04:49:31;4.48;70.30
67586;SHT31;55785;47.946;20.540;2024-01-27T04:51:56;4.53;70.20
67586;SHT31;55785;47.946;20.540;2024-01-27T04:54:21;4.55;69.49
67586;SHT31;55785;47.946;20.540;2024-01-27T04:56:47;4.63;69.34
67586;SHT31;55785;47.946;20.540;2024-01-27T04:59:12;4.65;69.51
67586;SHT31;55785;47.946;20.540;2024-01-27T05:01:37;4.60;69.60
67586;SHT31;55785;47.946;20.540;2024-01-27T05:04:03;4.62;68.49
67586;SHT31;55785;47.946;20.540;2024-01-27T05:06:28;4.69;68.16
67586;SHT31;55785;47.946;20.540;2024-01-27T05:08:53;4.70;68.16
67586;SHT31;55785;47.946;20.540;2024-01-27T05:11:29;4.72;68.44
67586;SHT31;55785;47.946;20.540;2024-01-27T05:13:54;4.67;68.58
67586;SHT31;55785;47.946;20.540;2024-01-27T05:16:19;4.63;68.96
67586;SHT31;55785;47.946;20.540;2024-01-27T05:18:45;4.55;69.23
67586;SHT31;55785;47.946;20.540;2024-01-27T05:21:10;4.45;69.74
67586;SHT31;55785;47.946;20.540;2024-01-27T05:23:35;4.32;69.79
67586;SHT31;55785;47.946;20.540;2024-01-27T05:26:01;4.32;69.35
67586;SHT31;55785;47.946;20.540;2024-01-27T05:28:26;4.29;69.59
67586;SHT31;55785;47.946;20.540;2024-01-27T05:30:51;4.32;69.21
67586;SHT31;55785;47.946;20.540;2024-01-27T05:33:17;4.39;68.12
67586;SHT31;55785;47.946;20.540;2024-01-27T05:35:42;4.45;68.44
67586;SHT31;55785;47.946;20.540;2024-01-27T05:38:08;4.38;69.32
67586;SHT31;55785;47.946;20.540;2024-01-27T05:40:33;4.28;68.33
67586;SHT31;55785;47.946;20.540;2024-01-27T05:42:59;4.24;68.78
67586;SHT31;55785;47.946;20.540;2024-01-27T05:45:24;4.11;67.97
67586;SHT31;55785;47.946;20.540;2024-01-27T05:47:50;4.05;68.27
67586;SHT31;55785;47.946;20.540;2024-01-27T05:50:15;3.98;69.19
67586;SHT31;55785;47.946;20.540;2024-01-27T05:52:40;3.87;69.79
67586;SHT31;55785;47.946;20.540;2024-01-27T05:55:06;3.66;69.85
67586;SHT31;55785;47.946;20.540;2024-01-27T05:57:32;3.76;69.35
67586;SHT31;55785;47.946;20.540;2024-01-27T05:59:57;3.73;69.21
67586;SHT31;55785;47.946;20.540;2024-01-27T06:02:22;3.73;68.32
67586;SHT31;55785;47.946;20.540;2024-01-27T06:04:48;3.78;68.42
67586;SHT31;55785;47.946;20.540;2024-01-27T06:07:13;3.81;67.30
67586;SHT31;55785;47.946;20.540;2024-01-27T06:09:38;3.87;67.01
67586;SHT31;55785;47.946;20.540;2024-01-27T06:12:04;3.88;67.56
67586;SHT31;55785;47.946;20.540;2024-01-27T06:14:30;3.77;67.88
67586;SHT31;55785;47.946;20.540;2024-01-27T06:16:55;3.81;65.55
67586;SHT31;55785;47.946;20.540;2024-01-27T06:19:20;3.91;65.09
67586;SHT31;55785;47.946;20.540;2024-01-27T06:21:46;3.93;65.58
67586;SHT31;55785;47.946;20.540;2024-01-27T06:24:11;3.99;64.87
67586;SHT31;55785;47.946;20.540;2024-01-27T06:26:36;3.98;65.08
67586;SHT31;55785;47.946;20.540;2024-01-27T06:29:02;3.95;65.93
67586;SHT31;55785;47.946;20.540;2024-01-27T06:31:27;3.88;64.97
67586;SHT31;55785;47.946;20.540;2024-01-27T06:33:52;4.01;65.03
67586;SHT31;55785;47.946;20.540;2024-01-27T06:36:18;3.97;65.74
67586;SHT31;55785;47.946;20.540;2024-01-27T06:38:43;3.93;64.84
67586;SHT31;55785;47.946;20.540;2024-01-27T06:41:09;3.93;64.77
67586;SHT31;55785;47.946;20.540;2024-01-27T06:43:35;3.95;64.64
67586;SHT31;55785;47.946;20.540;2024-01-27T06:46:00;3.88;65.71
67586;SHT31;55785;47.946;20.540;2024-01-27T06:48:26;3.93;65.26
67586;SHT31;55785;47.946;20.540;2024-01-27T06:50:51;3.86;66.36
67586;SHT31;55785;47.946;20.540;2024-01-27T06:53:18;3.94;65.17
67586;SHT31;55785;47.946;20.540;2024-01-27T06:55:43;4.04;64.41
67586;SHT31;55785;47.946;20.540;2024-01-27T06:58:09;4.08;64.15
67586;SHT31;55785;47.946;20.540;2024-01-27T07:00:34;4.09;64.28
67586;SHT31;55785;47.946;20.540;2024-01-27T07:02:59;4.19;63.43
67586;SHT31;55785;47.946;20.540;2024-01-27T07:05:25;4.18;63.12
67586;SHT31;55785;47.946;20.540;2024-01-27T07:07:50;4.24;62.49
67586;SHT31;55785;47.946;20.540;2024-01-27T07:10:15;4.38;60.72
67586;SHT31;55785;47.946;20.540;2024-01-27T07:12:40;4.46;61.60
67586;SHT31;55785;47.946;20.540;2024-01-27T07:15:06;4.45;60.91
67586;SHT31;55785;47.946;20.540;2024-01-27T07:17:31;4.45;61.81
67586;SHT31;55785;47.946;20.540;2024-01-27T07:19:57;4.45;62.64
67586;SHT31;55785;47.946;20.540;2024-01-27T07:22:23;4.48;61.82
67586;SHT31;55785;47.946;20.540;2024-01-27T07:24:48;4.55;61.44
67586;SHT31;55785;47.946;20.540;2024-01-27T07:27:14;4.59;61.79
67586;SHT31;55785;47.946;20.540;2024-01-27T07:29:39;4.65;62.07
67586;SHT31;55785;47.946;20.540;2024-01-27T07:32:05;4.72;60.47
67586;SHT31;55785;47.946;20.540;2024-01-27T07:34:30;4.77;60.71
67586;SHT31;55785;47.946;20.540;2024-01-27T07:36:56;4.80;60.62
67586;SHT31;55785;47.946;20.540;2024-01-27T07:39:21;4.83;60.66
67586;SHT31;55785;47.946;20.540;2024-01-27T07:41:46;4.91;60.49
67586;SHT31;55785;47.946;20.540;2024-01-27T07:44:14;4.97;60.08
67586;SHT31;55785;47.946;20.540;2024-01-27T07:46:40;5.00;58.61
67586;SHT31;55785;47.946;20.540;2024-01-27T07:49:06;5.08;59.29
67586;SHT31;55785;47.946;20.540;2024-01-27T07:51:32;5.08;59.83
67586;SHT31;55785;47.946;20.540;2024-01-27T07:53:58;5.08;59.97
67586;SHT31;55785;47.946;20.540;2024-01-27T07:56:24;5.05;60.68
67586;SHT31;55785;47.946;20.540;2024-01-27T07:58:49;5.01;61.81
67586;SHT31;55785;47.946;20.540;2024-01-27T08:01:15;5.03;61.27
67586;SHT31;55785;47.946;20.540;2024-01-27T08:03:41;5.05;61.75
67586;SHT31;55785;47.946;20.540;2024-01-27T08:06:06;5.03;61.51
67586;SHT31;55785;47.946;20.540;2024-01-27T08:08:32;5.03;61.69
67586;SHT31;55785;47.946;20.540;2024-01-27T08:10:57;4.98;62.89
67586;SHT31;55785;47.946;20.540;2024-01-27T08:13:22;5.03;62.62
67586;SHT31;55785;47.946;20.540;2024-01-27T08:15:48;5.10;63.20
67586;SHT31;55785;47.946;20.540;2024-01-27T08:18:13;5.13;64.17
67586;SHT31;55785;47.946;20.540;2024-01-27T08:20:38;5.14;65.11
67586;SHT31;55785;47.946;20.540;2024-01-27T08:23:04;5.10;65.23
67586;SHT31;55785;47.946;20.540;2024-01-27T08:25:29;5.13;64.74
67586;SHT31;55785;47.946;20.540;2024-01-27T08:27:54;5.20;65.47
67586;SHT31;55785;47.946;20.540;2024-01-27T08:30:20;5.23;65.19
67586;SHT31;55785;47.946;20.540;2024-01-27T08:32:45;5.28;65.08
67586;SHT31;55785;47.946;20.540;2024-01-27T08:35:11;5.35;65.39
67586;SHT31;55785;47.946;20.540;2024-01-27T08:37:36;5.34;65.31
67586;SHT31;55785;47.946;20.540;2024-01-27T08:40:01;5.39;64.82
67586;SHT31;55785;47.946;20.540;2024-01-27T08:42:27;5.44;64.51
67586;SHT31;55785;47.946;20.540;2024-01-27T08:44:52;5.49;64.60
67586;SHT31;55785;47.946;20.540;2024-01-27T08:47:17;5.53;63.85
67586;SHT31;55785;47.946;20.540;2024-01-27T08:49:43;5.59;64.21
67586;SHT31;55785;47.946;20.540;2024-01-27T08:52:08;5.65;65.23
67586;SHT31;55785;47.946;20.540;2024-01-27T08:54:33;5.69;64.57
67586;SHT31;55785;47.946;20.540;2024-01-27T08:56:59;5.72;65.57
67586;SHT31;55785;47.946;20.540;2024-01-27T08:59:24;5.76;64.98
67586;SHT31;55785;47.946;20.540;2024-01-27T09:01:49;5.87;65.88
67586;SHT31;55785;47.946;20.540;2024-01-27T09:04:15;5.86;64.44
67586;SHT31;55785;47.946;20.540;2024-01-27T09:06:40;5.86;64.35
67586;SHT31;55785;47.946;20.540;2024-01-27T09:09:05;5.90;65.27
67586;SHT31;55785;47.946;20.540;2024-01-27T09:11:31;5.96;63.67
67586;SHT31;55785;47.946;20.540;2024-01-27T09:13:56;5.90;62.44
67586;SHT31;55785;47.946;20.540;2024-01-27T09:16:22;5.96;64.53
67586;SHT31;55785;47.946;20.540;2024-01-27T09:18:47;5.96;64.37
67586;SHT31;55785;47.946;20.540;2024-01-27T09:21:13;5.74;63.34
67586;SHT31;55785;47.946;20.540;2024-01-27T09:23:38;5.69;64.57
67586;SHT31;55785;47.946;20.540;2024-01-27T09:26:04;5.63;65.41
67586;SHT31;55785;47.946;20.540;2024-01-27T09:28:30;5.63;65.38
67586;SHT31;55785;47.946;20.540;2024-01-27T09:30:55;5.60;65.40
67586;SHT31;55785;47.946;20.540;2024-01-27T09:33:20;5.51;65.53
67586;SHT31;55785;47.946;20.540;2024-01-27T09:35:46;5.51;63.85
67586;SHT31;55785;47.946;20.540;2024-01-27T09:38:11;5.53;63.72
67586;SHT31;55785;47.946;20.540;2024-01-27T09:40:37;5.59;64.19
67586;SHT31;55785;47.946;20.540;2024-01-27T09:43:02;5.63;64.13
67586;SHT31;55785;47.946;20.540;2024-01-27T09:45:27;5.69;64.95
67586;SHT31;55785;47.946;20.540;2024-01-27T09:47:54;5.70;63.48
67586;SHT31;55785;47.946;20.540;2024-01-27T09:50:21;5.77;62.89
67586;SHT31;55785;47.946;20.540;2024-01-27T09:52:47;5.96;62.46
67586;SHT31;55785;47.946;20.540;2024-01-27T09:55:12;6.13;62.82
67586;SHT31;55785;47.946;20.540;2024-01-27T09:57:38;6.07;61.40
67586;SHT31;55785;47.946;20.540;2024-01-27T10:00:05;6.07;62.07
67586;SHT31;55785;47.946;20.540;2024-01-27T10:02:31;6.04;61.98
67586;SHT31;55785;47.946;20.540;2024-01-27T10:04:58;6.04;61.70
67586;SHT31;55785;47.946;20.540;2024-01-27T10:07:24;6.10;60.15
67586;SHT31;55785;47.946;20.540;2024-01-27T10:09:50;6.21;60.89
67586;SHT31;55785;47.946;20.540;2024-01-27T10:12:16;6.34;60.68
67586;SHT31;55785;47.946;20.540;2024-01-27T10:14:43;6.48;59.17
67586;SHT31;55785;47.946;20.540;2024-01-27T10:17:11;6.58;60.40
67586;SHT31;55785;47.946;20.540;2024-01-27T10:19:36;6.75;58.59
67586;SHT31;55785;47.946;20.540;2024-01-27T10:22:02;6.83;58.53
67586;SHT31;55785;47.946;20.540;2024-01-27T10:24:27;6.99;59.00
67586;SHT31;55785;47.946;20.540;2024-01-27T10:27:00;6.99;57.29
67586;SHT31;55785;47.946;20.540;2024-01-27T10:29:25;7.07;56.45
67586;SHT31;55785;47.946;20.540;2024-01-27T10:31:50;7.24;56.79
67586;SHT31;55785;47.946;20.540;2024-01-27T10:34:19;7.28;55.46
67586;SHT31;55785;47.946;20.540;2024-01-27T10:36:45;7.37;55.40
67586;SHT31;55785;47.946;20.540;2024-01-27T10:39:20;7.30;55.12
67586;SHT31;55785;47.946;20.540;2024-01-27T10:41:47;7.10;55.65
67586;SHT31;55785;47.946;20.540;2024-01-27T10:44:15;6.93;55.96
67586;SHT31;55785;47.946;20.540;2024-01-27T10:46:45;6.80;56.17
67586;SHT31;55785;47.946;20.540;2024-01-27T10:49:12;6.62;57.18
67586;SHT31;55785;47.946;20.540;2024-01-27T10:51:54;6.56;56.02
67586;SHT31;55785;47.946;20.540;2024-01-27T10:54:26;6.68;54.85
67586;SHT31;55785;47.946;20.540;2024-01-27T10:56:56;6.96;55.50
67586;SHT31;55785;47.946;20.540;2024-01-27T10:59:21;7.04;56.37
67586;SHT31;55785;47.946;20.540;2024-01-27T11:01:49;7.16;52.93
67586;SHT31;55785;47.946;20.540;2024-01-27T11:04:15;7.17;53.52
67586;SHT31;55785;47.946;20.540;2024-01-27T11:06:42;7.27;53.59
67586;SHT31;55785;47.946;20.540;2024-01-27T11:09:08;7.30;52.33
67586;SHT31;55785;47.946;20.540;2024-01-27T11:11:34;7.16;51.91
67586;SHT31;55785;47.946;20.540;2024-01-27T11:14:00;7.04;51.95
67586;SHT31;55785;47.946;20.540;2024-01-27T11:16:26;6.97;52.54
67586;SHT31;55785;47.946;20.540;2024-01-27T11:18:52;6.92;52.18
67586;SHT31;55785;47.946;20.540;2024-01-27T11:21:17;6.97;52.97
67586;SHT31;55785;47.946;20.540;2024-01-27T11:23:43;7.14;52.98
67586;SHT31;55785;47.946;20.540;2024-01-27T11:26:09;7.20;51.85
67586;SHT31;55785;47.946;20.540;2024-01-27T11:28:35;7.19;52.46
67586;SHT31;55785;47.946;20.540;2024-01-27T11:31:07;7.38;51.43
67586;SHT31;55785;47.946;20.540;2024-01-27T11:33:33;7.35;50.62
67586;SHT31;55785;47.946;20.540;2024-01-27T11:36:05;7.11;51.20
67586;SHT31;55785;47.946;20.540;2024-01-27T11:38:31;7.03;52.06
67586;SHT31;55785;47.946;20.540;2024-01-27T11:40:59;7.03;52.47
67586;SHT31;55785;47.946;20.540;2024-01-27T11:43:24;7.06;53.04
67586;SHT31;55785;47.946;20.540;2024-01-27T11:46:00;6.96;52.11
67586;SHT31;55785;47.946;20.540;2024-01-27T11:48:26;6.90;52.65
67586;SHT31;55785;47.946;20.540;2024-01-27T11:51:10;6.82;52.28
67586;SHT31;55785;47.946;20.540;2024-01-27T11:53:37;6.73;52.01
67586;SHT31;55785;47.946;20.540;2024-01-27T11:56:05;6.71;52.51
67586;SHT31;55785;47.946;20.540;2024-01-27T11:58:31;6.69;52.46
67586;SHT31;55785;47.946;20.540;2024-01-27T12:00:57;6.76;53.34
67586;SHT31;55785;47.946;20.540;2024-01-27T12:03:23;6.80;52.06
67586;SHT31;55785;47.946;20.540;2024-01-27T12:05:48;6.96;51.86
67586;SHT31;55785;47.946;20.540;2024-01-27T12:08:13;7.52;50.81
67586;SHT31;55785;47.946;20.540;2024-01-27T12:10:39;7.92;49.68
67586;SHT31;55785;47.946;20.540;2024-01-27T12:13:05;7.75;48.41
67586;SHT31;55785;47.946;20.540;2024-01-27T12:15:30;7.48;49.54
67586;SHT31;55785;47.946;20.540;2024-01-27T12:17:55;7.20;49.91
67586;SHT31;55785;47.946;20.540;2024-01-27T12:20:22;7.10;49.92
67586;SHT31;55785;47.946;20.540;2024-01-27T12:22:48;7.04;50.43
67586;SHT31;55785;47.946;20.540;2024-01-27T12:25:13;6.97;50.48
67586;SHT31;55785;47.946;20.540;2024-01-27T12:27:39;6.95;51.17
67586;SHT31;55785;47.946;20.540;2024-01-27T12:30:05;6.96;51.23
67586;SHT31;55785;47.946;20.540;2024-01-27T12:32:31;6.95;50.70
67586;SHT31;55785;47.946;20.540;2024-01-27T12:34:57;6.86;50.81
67586;SHT31;55785;47.946;20.540;2024-01-27T12:37:23;6.89;51.10
67586;SHT31;55785;47.946;20.540;2024-01-27T12:39:48;6.83;50.33
67586;SHT31;55785;47.946;20.540;2024-01-27T12:42:13;6.79;51.03
67586;SHT31;55785;47.946;20.540;2024-01-27T12:44:39;6.85;51.95
67586;SHT31;55785;47.946;20.540;2024-01-27T12:47:05;6.85;51.07
67586;SHT31;55785;47.946;20.540;2024-01-27T12:49:30;6.75;51.05
67586;SHT31;55785;47.946;20.540;2024-01-27T12:51:56;6.65;50.81
67586;SHT31;55785;47.946;20.540;2024-01-27T12:54:21;6.69;51.81
67586;SHT31;55785;47.946;20.540;2024-01-27T12:56:46;6.62;50.64
67586;SHT31;55785;47.946;20.540;2024-01-27T12:59:12;6.55;52.69
67586;SHT31;55785;47.946;20.540;2024-01-27T13:01:37;6.53;53.28
67586;SHT31;55785;47.946;20.540;2024-01-27T13:04:02;6.48;52.07
67586;SHT31;55785;47.946;20.540;2024-01-27T13:06:28;6.49;51.90
67586;SHT31;55785;47.946;20.540;2024-01-27T13:08:53;6.45;52.45
67586;SHT31;55785;47.946;20.540;2024-01-27T13:11:20;6.55;52.58
67586;SHT31;55785;47.946;20.540;2024-01-27T13:13:45;6.52;53.15
67586;SHT31;55785;47.946;20.540;2024-01-27T13:16:10;6.52;52.37
67586;SHT31;55785;47.946;20.540;2024-01-27T13:18:36;6.49;52.87
67586;SHT31;55785;47.946;20.540;2024-01-27T13:21:01;6.37;52.26
67586;SHT31;55785;47.946;20.540;2024-01-27T13:23:27;6.38;52.85
67586;SHT31;55785;47.946;20.540;2024-01-27T13:25:52;6.34;52.38
67586;SHT31;55785;47.946;20.540;2024-01-27T13:28:17;6.35;53.27
67586;SHT31;55785;47.946;20.540;2024-01-27T13:30:43;6.31;53.00
67586;SHT31;55785;47.946;20.540;2024-01-27T13:33:08;6.28;52.57
67586;SHT31;55785;47.946;20.540;2024-01-27T13:35:33;6.25;52.81
67586;SHT31;55785;47.946;20.540;2024-01-27T13:37:59;6.28;53.15
67586;SHT31;55785;47.946;20.540;2024-01-27T13:40:24;6.31;53.57
67586;SHT31;55785;47.946;20.540;2024-01-27T13:42:49;6.34;53.64
67586;SHT31;55785;47.946;20.540;2024-01-27T13:45:15;6.34;53.12
67586;SHT31;55785;47.946;20.540;2024-01-27T13:47:40;6.35;53.45
67586;SHT31;55785;47.946;20.540;2024-01-27T13:50:06;6.35;52.16
67586;SHT31;55785;47.946;20.540;2024-01-27T13:52:32;6.35;52.16
67586;SHT31;55785;47.946;20.540;2024-01-27T13:54:57;6.30;51.68
67586;SHT31;55785;47.946;20.540;2024-01-27T13:57:22;6.30;53.07
67586;SHT31;55785;47.946;20.540;2024-01-27T13:59:49;6.24;53.99
67586;SHT31;55785;47.946;20.540;2024-01-27T14:02:15;6.18;52.98
67586;SHT31;55785;47.946;20.540;2024-01-27T14:04:40;6.20;54.80
67586;SHT31;55785;47.946;20.540;2024-01-27T14:07:05;6.14;55.03
67586;SHT31;55785;47.946;20.540;2024-01-27T14:09:31;6.06;54.23
67586;SHT31;55785;47.946;20.540;2024-01-27T14:11:56;6.04;53.66
67586;SHT31;55785;47.946;20.540;2024-01-27T14:14:21;5.94;55.26
67586;SHT31;55785;47.946;20.540;2024-01-27T14:16:47;5.93;55.44
67586;SHT31;55785;47.946;20.540;2024-01-27T14:19:12;5.92;54.81
67586;SHT31;55785;47.946;20.540;2024-01-27T14:21:38;5.90;54.00
67586;SHT31;55785;47.946;20.540;2024-01-27T14:24:03;5.89;54.77
67586;SHT31;55785;47.946;20.540;2024-01-27T14:26:29;5.87;54.37
67586;SHT31;55785;47.946;20.540;2024-01-27T14:28:55;5.86;54.56
67586;SHT31;55785;47.946;20.540;2024-01-27T14:31:21;5.92;55.63
67586;SHT31;55785;47.946;20.540;2024-01-27T14:33:46;5.82;55.57
67586;SHT31;55785;47.946;20.540;2024-01-27T14:36:12;5.83;55.48
67586;SHT31;55785;47.946;20.540;2024-01-27T14:38:37;5.82;55.76
67586;SHT31;55785;47.946;20.540;2024-01-27T14:41:03;5.82;54.74
67586;SHT31;55785;47.946;20.540;2024-01-27T14:43:28;5.82;54.84
67586;SHT31;55785;47.946;20.540;2024-01-27T14:45:53;5.80;54.68
67586;SHT31;55785;47.946;20.540;2024-01-27T14:48:19;5.77;55.01
67586;SHT31;55785;47.946;20.540;2024-01-27T14:50:44;5.77;54.53
67586;SHT31;55785;47.946;20.540;2024-01-27T14:53:09;5.79;54.52
67586;SHT31;55785;47.946;20.540;2024-01-27T14:55:35;5.72;55.04
67586;SHT31;55785;47.946;20.540;2024-01-27T14:58:00;5.70;54.65
67586;SHT31;55785;47.946;20.540;2024-01-27T15:00:25;5.69;54.91
67586;SHT31;55785;47.946;20.540;2024-01-27T15:02:51;5.62;55.13
67586;SHT31;55785;47.946;20.540;2024-01-27T15:05:16;5.60;55.21
67586;SHT31;55785;47.946;20.540;2024-01-27T15:07:41;5.60;55.46
67586;SHT31;55785;47.946;20.540;2024-01-27T15:10:07;5.49;56.27
67586;SHT31;55785;47.946;20.540;2024-01-27T15:12:33;5.38;57.20
67586;SHT31;55785;47.946;20.540;2024-01-27T15:14:58;5.34;56.70
67586;SHT31;55785;47.946;20.540;2024-01-27T15:17:23;5.31;57.40
67586;SHT31;55785;47.946;20.540;2024-01-27T15:19:50;5.21;57.70